createdAt,value
2016-11-13T00:00:45.312Z,0
2016-11-13T00:02:01.403Z,0
2016-11-13T00:03:17.612Z,0
2016-11-13T00:04:32.768Z,0
2016-11-13T00:05:48.488Z,0
2016-11-13T00:07:03.287Z,0
2016-11-13T00:08:19.333Z,0
2016-11-13T00:09:33.965Z,0
2016-11-13T00:10:46.947Z,0
2016-11-13T00:12:01.403Z,0
2016-11-13T00:13:15.972Z,0
2016-11-13T00:14:30.634Z,0
2016-11-13T00:15:43.872Z,0
2016-11-13T00:16:56.932Z,0
2016-11-13T00:18:10.209Z,0
2016-11-13T00:19:25.085Z,0
2016-11-13T00:20:39.876Z,0
2016-11-13T00:21:51.948Z,0
2016-11-13T00:23:08.197Z,0
2016-11-13T00:24:23.005Z,0
2016-11-13T00:25:36.232Z,0
2016-11-13T00:26:50.575Z,0
2016-11-13T00:28:07.093Z,0
2016-11-13T00:29:21.889Z,0
2016-11-13T00:30:37.929Z,0
2016-11-13T00:31:49.453Z,0
2016-11-13T00:33:04.145Z,0
2016-11-13T00:34:17.317Z,0
2016-11-13T00:35:31.973Z,0
2016-11-13T00:36:46.574Z,0
2016-11-13T00:38:02.982Z,0
2016-11-13T00:39:16.357Z,0
2016-11-13T00:40:32.294Z,0
2016-11-13T00:41:48.123Z,0
2016-11-13T00:43:04.063Z,0
2016-11-13T00:44:16.785Z,0
2016-11-13T00:45:30.027Z,0
2016-11-13T00:46:44.218Z,0
2016-11-13T00:47:58.681Z,0
2016-11-13T00:49:15.244Z,0
2016-11-13T00:50:31.254Z,0
2016-11-13T00:51:47.646Z,0
2016-11-13T00:53:01.832Z,0
2016-11-13T00:54:13.370Z,0
2016-11-13T00:55:27.240Z,0
2016-11-13T00:56:40.383Z,0
2016-11-13T00:57:51.885Z,0
2016-11-13T00:59:06.231Z,0
2016-11-13T01:00:20.427Z,0
2016-11-13T01:01:34.646Z,0
2016-11-13T01:02:51.397Z,0
2016-11-13T01:04:04.370Z,0
2016-11-13T01:05:19.125Z,0
2016-11-13T01:06:33.220Z,0
2016-11-13T01:07:49.616Z,0
2016-11-13T01:09:03.658Z,0
2016-11-13T01:10:18.079Z,0
2016-11-13T01:11:31.977Z,0
2016-11-13T01:12:45.807Z,0
2016-11-13T01:14:01.978Z,0
2016-11-13T01:15:15.140Z,0
2016-11-13T01:16:29.968Z,0
2016-11-13T01:17:44.758Z,0
2016-11-13T01:19:00.268Z,0
2016-11-13T01:20:14.001Z,0
2016-11-13T01:21:28.579Z,0
2016-11-13T01:22:45.330Z,0
2016-11-13T01:24:00.135Z,0
2016-11-13T01:25:15.955Z,0
2016-11-13T01:26:30.584Z,0
2016-11-13T01:27:45.177Z,0
2016-11-13T01:29:01.224Z,0
2016-11-13T01:30:14.348Z,0
2016-11-13T01:31:30.559Z,0
2016-11-13T01:32:46.592Z,0
2016-11-13T01:34:01.481Z,0
2016-11-13T01:35:17.706Z,0
2016-11-13T01:36:30.701Z,0
2016-11-13T01:37:45.678Z,0
2016-11-13T01:39:02.086Z,0
2016-11-13T01:40:16.694Z,0
2016-11-13T01:41:32.746Z,0
2016-11-13T01:42:45.526Z,0
2016-11-13T01:44:01.597Z,0
2016-11-13T01:45:16.162Z,0
2016-11-13T01:46:29.473Z,0
2016-11-13T01:47:42.600Z,0
2016-11-13T01:48:57.245Z,0
2016-11-13T01:50:10.555Z,0
2016-11-13T01:51:25.324Z,0
2016-11-13T01:52:39.573Z,0
2016-11-13T01:53:53.447Z,0
2016-11-13T01:55:07.764Z,0
2016-11-13T01:56:22.536Z,0
2016-11-13T01:57:38.356Z,0
2016-11-13T01:58:50.059Z,0
2016-11-13T02:00:01.555Z,0
2016-11-13T02:01:17.919Z,0
2016-11-13T02:02:32.384Z,0
2016-11-13T02:03:46.467Z,0
2016-11-13T02:04:59.895Z,0
2016-11-13T02:06:14.449Z,0
2016-11-13T02:07:28.757Z,0
2016-11-13T02:08:43.734Z,0
2016-11-13T02:10:00.325Z,0
2016-11-13T02:11:14.350Z,0
2016-11-13T02:12:30.398Z,0
2016-11-13T02:13:45.018Z,0
2016-11-13T02:15:01.377Z,0
2016-11-13T02:16:12.734Z,0
2016-11-13T02:17:26.917Z,0
2016-11-13T02:18:42.054Z,0
2016-11-13T02:19:56.293Z,0
2016-11-13T02:21:12.007Z,0
2016-11-13T02:22:27.845Z,0
2016-11-13T02:23:41.813Z,0
2016-11-13T02:24:56.178Z,0
2016-11-13T02:26:12.017Z,0
2016-11-13T02:27:26.576Z,0
2016-11-13T02:28:42.636Z,0
2016-11-13T02:29:53.976Z,0
2016-11-13T02:31:08.880Z,0
2016-11-13T02:32:21.700Z,0
2016-11-13T02:33:36.264Z,0
2016-11-13T02:34:51.250Z,0
2016-11-13T02:36:05.540Z,0
2016-11-13T02:37:19.064Z,0
2016-11-13T02:38:33.412Z,0
2016-11-13T02:39:49.951Z,0
2016-11-13T02:41:05.820Z,0
2016-11-13T02:42:22.029Z,0
2016-11-13T02:43:36.805Z,0
2016-11-13T02:44:50.102Z,0
2016-11-13T02:46:04.230Z,0
2016-11-13T02:47:16.991Z,0
2016-11-13T02:48:30.659Z,0
2016-11-13T02:49:43.448Z,0
2016-11-13T02:50:59.694Z,0
2016-11-13T02:52:14.098Z,0
2016-11-13T02:53:27.077Z,0
2016-11-13T02:54:43.272Z,0
2016-11-13T02:55:59.287Z,0
2016-11-13T02:57:15.870Z,0
2016-11-13T02:58:30.454Z,0
2016-11-13T02:59:45.092Z,0
2016-11-13T03:01:00.595Z,0
2016-11-13T03:02:15.372Z,0
2016-11-13T03:03:29.603Z,0
2016-11-13T03:04:45.736Z,0
2016-11-13T03:06:00.719Z,0
2016-11-13T03:07:16.012Z,0
2016-11-13T03:08:30.621Z,0
2016-11-13T03:09:46.782Z,0
2016-11-13T03:10:59.952Z,0
2016-11-13T03:12:14.330Z,0
2016-11-13T03:13:29.442Z,0
2016-11-13T03:14:43.612Z,0
2016-11-13T03:15:59.702Z,0
2016-11-13T03:17:15.038Z,0
2016-11-13T03:18:27.846Z,0
2016-11-13T03:19:39.631Z,0
2016-11-13T03:20:55.328Z,0
2016-11-13T03:22:11.174Z,0
2016-11-13T03:23:27.234Z,0
2016-11-13T03:24:43.123Z,0
2016-11-13T03:25:57.884Z,0
2016-11-13T03:27:13.388Z,0
2016-11-13T03:28:28.918Z,0
2016-11-13T03:29:43.682Z,0
2016-11-13T03:30:58.839Z,0
2016-11-13T03:32:11.585Z,0
2016-11-13T03:33:24.765Z,0
2016-11-13T03:34:36.536Z,0
2016-11-13T03:35:50.769Z,0
2016-11-13T03:37:05.673Z,0
2016-11-13T03:38:21.537Z,0
2016-11-13T03:39:37.181Z,0
2016-11-13T03:40:51.799Z,0
2016-11-13T03:42:05.680Z,0
2016-11-13T03:43:20.191Z,0
2016-11-13T03:44:33.312Z,0
2016-11-13T03:45:47.345Z,0
2016-11-13T03:47:02.913Z,0
2016-11-13T03:48:18.078Z,0
2016-11-13T03:49:31.202Z,0
2016-11-13T03:50:45.855Z,0
2016-11-13T03:51:59.134Z,0
2016-11-13T03:53:13.725Z,0
2016-11-13T03:54:29.757Z,0
2016-11-13T03:55:44.128Z,0
2016-11-13T03:57:00.735Z,0
2016-11-13T03:58:15.705Z,0
2016-11-13T03:59:31.420Z,0
2016-11-13T04:00:47.258Z,0
2016-11-13T04:02:01.804Z,0
2016-11-13T04:03:16.204Z,0
2016-11-13T04:04:30.814Z,0
2016-11-13T04:05:43.502Z,0
2016-11-13T04:06:58.130Z,0
2016-11-13T04:08:12.535Z,0
2016-11-13T04:09:25.238Z,0
2016-11-13T04:10:39.653Z,0
2016-11-13T04:11:55.105Z,0
2016-11-13T04:13:08.239Z,0
2016-11-13T04:14:21.061Z,0
2016-11-13T04:15:35.933Z,0
2016-11-13T04:16:49.326Z,0
2016-11-13T04:18:04.972Z,0
2016-11-13T04:19:19.752Z,0
2016-11-13T04:20:34.041Z,0
2016-11-13T04:21:48.832Z,0
2016-11-13T04:23:03.108Z,0
2016-11-13T04:24:15.907Z,0
2016-11-13T04:25:30.214Z,0
2016-11-13T04:26:45.698Z,0
2016-11-13T04:28:00.394Z,0
2016-11-13T04:29:16.243Z,0
2016-11-13T04:30:31.694Z,0
2016-11-13T04:31:44.688Z,0
2016-11-13T04:32:59.231Z,0
2016-11-13T04:34:14.866Z,0
2016-11-13T04:35:29.485Z,0
2016-11-13T04:36:42.444Z,0
2016-11-13T04:37:57.605Z,0
2016-11-13T04:39:10.902Z,0
2016-11-13T04:40:27.161Z,0
2016-11-13T04:41:42.704Z,0
2016-11-13T04:42:55.541Z,0
2016-11-13T04:44:09.934Z,0
2016-11-13T04:45:25.720Z,0
2016-11-13T04:46:41.600Z,0
2016-11-13T04:47:57.147Z,0
2016-11-13T04:49:13.146Z,0
2016-11-13T04:50:28.299Z,0
2016-11-13T04:51:43.654Z,0
2016-11-13T04:52:58.069Z,0
2016-11-13T04:54:10.882Z,0
2016-11-13T04:55:24.900Z,0
2016-11-13T04:56:37.655Z,0
2016-11-13T04:57:52.344Z,0
2016-11-13T04:59:08.230Z,0
2016-11-13T05:00:19.906Z,0
2016-11-13T05:01:32.688Z,0
2016-11-13T05:02:47.153Z,0
2016-11-13T05:04:01.426Z,0
2016-11-13T05:05:17.072Z,0
2016-11-13T05:06:31.670Z,0
2016-11-13T05:07:46.233Z,0
2016-11-13T05:09:02.602Z,0
2016-11-13T05:10:19.562Z,0
2016-11-13T05:11:35.211Z,0
2016-11-13T05:12:50.681Z,0
2016-11-13T05:14:07.220Z,0
2016-11-13T05:15:20.116Z,0
2016-11-13T05:16:34.177Z,0
2016-11-13T05:17:50.294Z,0
2016-11-13T05:19:03.462Z,0
2016-11-13T05:20:18.011Z,0
2016-11-13T05:21:33.514Z,0
2016-11-13T05:22:47.738Z,0
2016-11-13T05:24:03.024Z,0
2016-11-13T05:25:16.025Z,0
2016-11-13T05:26:29.513Z,0
2016-11-13T05:27:45.510Z,0
2016-11-13T05:29:00.638Z,0
2016-11-13T05:30:16.148Z,0
2016-11-13T05:31:30.347Z,0
2016-11-13T05:32:44.160Z,0
2016-11-13T05:33:57.040Z,0
2016-11-13T05:35:11.941Z,0
2016-11-13T05:36:26.203Z,0
2016-11-13T05:37:38.988Z,0
2016-11-13T05:38:52.202Z,0
2016-11-13T05:40:07.748Z,0
2016-11-13T05:41:24.309Z,0
2016-11-13T05:42:37.348Z,0
2016-11-13T05:43:53.955Z,0
2016-11-13T05:45:08.172Z,0
2016-11-13T05:46:24.361Z,0
2016-11-13T05:47:39.880Z,0
2016-11-13T05:48:54.881Z,0
2016-11-13T05:50:09.270Z,0
2016-11-13T05:51:25.286Z,0
2016-11-13T05:52:39.328Z,0
2016-11-13T05:53:52.297Z,0
2016-11-13T05:55:06.920Z,0
2016-11-13T05:56:19.708Z,0
2016-11-13T05:57:33.875Z,0
2016-11-13T05:58:48.393Z,0
2016-11-13T06:00:02.457Z,0
2016-11-13T06:01:14.525Z,0
2016-11-13T06:02:27.598Z,0
2016-11-13T06:03:41.997Z,0
2016-11-13T06:04:55.456Z,0
2016-11-13T06:06:10.193Z,0
2016-11-13T06:07:25.910Z,0
2016-11-13T06:08:39.066Z,0
2016-11-13T06:09:52.327Z,0
2016-11-13T06:11:05.652Z,0
2016-11-13T06:12:17.163Z,0
2016-11-13T06:13:30.341Z,0
2016-11-13T06:14:45.427Z,0
2016-11-13T06:15:59.965Z,0
2016-11-13T06:17:14.689Z,0
2016-11-13T06:18:29.467Z,0
2016-11-13T06:19:43.898Z,0
2016-11-13T06:20:58.626Z,0
2016-11-13T06:22:13.228Z,0
2016-11-13T06:23:24.894Z,0
2016-11-13T06:24:36.580Z,0
2016-11-13T06:25:52.957Z,0
2016-11-13T06:27:07.438Z,0
2016-11-13T06:28:24.028Z,0
2016-11-13T06:29:35.645Z,0
2016-11-13T06:30:50.071Z,0
2016-11-13T06:32:04.672Z,0
2016-11-13T06:33:16.268Z,0
2016-11-13T06:34:29.394Z,0
2016-11-13T06:35:42.123Z,5
2016-11-13T06:36:55.428Z,5
2016-11-13T06:38:11.317Z,5
2016-11-13T06:39:27.351Z,5
2016-11-13T06:40:41.982Z,5
2016-11-13T06:41:57.955Z,5
2016-11-13T06:43:10.548Z,5
2016-11-13T06:44:24.595Z,5
2016-11-13T06:45:39.250Z,5
2016-11-13T06:46:53.817Z,5
2016-11-13T06:48:08.207Z,5
2016-11-13T06:49:24.257Z,10
2016-11-13T06:50:37.631Z,10
2016-11-13T06:51:53.320Z,10
2016-11-13T06:53:07.517Z,10
2016-11-13T06:54:20.840Z,15
2016-11-13T06:55:36.661Z,15
2016-11-13T06:56:49.658Z,15
2016-11-13T06:58:04.037Z,15
2016-11-13T06:59:15.333Z,15
2016-11-13T07:00:31.162Z,20
2016-11-13T07:01:47.057Z,20
2016-11-13T07:03:01.325Z,20
2016-11-13T07:04:17.036Z,25
2016-11-13T07:05:28.524Z,25
2016-11-13T07:06:44.712Z,25
2016-11-13T07:07:56.677Z,25
2016-11-13T07:09:09.266Z,30
2016-11-13T07:10:25.265Z,30
2016-11-13T07:11:38.376Z,30
2016-11-13T07:12:53.261Z,35
2016-11-13T07:14:09.284Z,35
2016-11-13T07:15:25.228Z,35
2016-11-13T07:16:40.075Z,35
2016-11-13T07:17:54.699Z,40
2016-11-13T07:19:09.994Z,40
2016-11-13T07:20:24.218Z,40
2016-11-13T07:21:38.626Z,40
2016-11-13T07:22:53.089Z,40
2016-11-13T07:24:07.287Z,40
2016-11-13T07:25:20.324Z,40
2016-11-13T07:26:31.963Z,45
2016-11-13T07:27:48.316Z,45
2016-11-13T07:29:02.472Z,50
2016-11-13T07:30:18.330Z,55
2016-11-13T07:31:34.553Z,55
2016-11-13T07:32:49.118Z,60
2016-11-13T07:34:04.867Z,65
2016-11-13T07:35:19.019Z,70
2016-11-13T07:36:34.859Z,70
2016-11-13T07:37:44.947Z,75
2016-11-13T07:38:59.257Z,85
2016-11-13T07:40:13.867Z,85
2016-11-13T07:41:24.005Z,90
2016-11-13T07:42:37.354Z,90
2016-11-13T07:43:50.497Z,90
2016-11-13T07:45:05.020Z,90
2016-11-13T07:46:21.513Z,90
2016-11-13T07:47:36.091Z,95
2016-11-13T07:48:50.512Z,95
2016-11-13T07:50:03.725Z,95
2016-11-13T07:51:20.009Z,95
2016-11-13T07:52:35.487Z,95
2016-11-13T07:53:51.883Z,95
2016-11-13T07:55:07.922Z,95
2016-11-13T07:56:24.151Z,95
2016-11-13T07:57:40.002Z,95
2016-11-13T07:58:55.839Z,95
2016-11-13T08:00:09.996Z,95
2016-11-13T08:01:26.539Z,100
2016-11-13T08:02:43.085Z,100
2016-11-13T08:03:54.915Z,105
2016-11-13T08:05:10.950Z,110
2016-11-13T08:06:25.538Z,115
2016-11-13T08:07:38.337Z,115
2016-11-13T08:08:52.889Z,120
2016-11-13T08:10:08.144Z,120
2016-11-13T08:11:22.613Z,120
2016-11-13T08:12:38.689Z,120
2016-11-13T08:13:53.607Z,120
2016-11-13T08:15:07.104Z,120
2016-11-13T08:16:21.378Z,120
2016-11-13T08:17:37.839Z,120
2016-11-13T08:18:52.613Z,125
2016-11-13T08:20:05.913Z,125
2016-11-13T08:21:20.105Z,125
2016-11-13T08:22:32.893Z,130
2016-11-13T08:23:47.462Z,135
2016-11-13T08:25:00.532Z,140
2016-11-13T08:26:15.307Z,150
2016-11-13T08:27:29.899Z,155
2016-11-13T08:28:46.242Z,165
2016-11-13T08:30:01.411Z,170
2016-11-13T08:31:17.068Z,180
2016-11-13T08:32:32.581Z,185
2016-11-13T08:33:46.868Z,190
2016-11-13T08:35:02.743Z,190
2016-11-13T08:36:17.073Z,190
2016-11-13T08:37:33.178Z,190
2016-11-13T08:38:50.112Z,195
2016-11-13T08:40:05.651Z,195
2016-11-13T08:41:19.531Z,195
2016-11-13T08:42:34.398Z,195
2016-11-13T08:43:50.544Z,195
2016-11-13T08:45:05.136Z,200
2016-11-13T08:46:21.194Z,200
2016-11-13T08:47:35.825Z,200
2016-11-13T08:48:51.896Z,200
2016-11-13T08:50:08.025Z,200
2016-11-13T08:51:20.108Z,200
2016-11-13T08:52:37.027Z,200
2016-11-13T08:53:51.446Z,195
2016-11-13T08:55:04.785Z,195
2016-11-13T08:56:19.156Z,195
2016-11-13T08:57:33.520Z,195
2016-11-13T08:58:50.092Z,195
2016-11-13T09:00:03.018Z,200
2016-11-13T09:01:19.289Z,200
2016-11-13T09:02:33.542Z,200
2016-11-13T09:03:46.327Z,200
2016-11-13T09:04:59.426Z,200
2016-11-13T09:06:14.995Z,195
2016-11-13T09:07:30.840Z,195
2016-11-13T09:08:44.736Z,195
2016-11-13T09:10:00.472Z,205
2016-11-13T09:11:16.320Z,205
2016-11-13T09:12:27.969Z,205
2016-11-13T09:13:41.840Z,210
2016-11-13T09:14:57.889Z,215
2016-11-13T09:16:13.951Z,215
2016-11-13T09:17:27.255Z,220
2016-11-13T09:18:43.220Z,220
2016-11-13T09:19:59.067Z,225
2016-11-13T09:21:12.018Z,225
2016-11-13T09:22:28.191Z,230
2016-11-13T09:23:42.594Z,230
2016-11-13T09:24:58.609Z,230
2016-11-13T09:26:11.788Z,235
2016-11-13T09:27:27.982Z,240
2016-11-13T09:28:44.387Z,245
2016-11-13T09:29:58.467Z,255
2016-11-13T09:31:11.314Z,260
2016-11-13T09:32:25.874Z,275
2016-11-13T09:33:40.818Z,285
2016-11-13T09:34:57.356Z,300
2016-11-13T09:36:10.103Z,305
2016-11-13T09:37:23.472Z,320
2016-11-13T09:38:38.964Z,335
2016-11-13T09:39:55.152Z,350
2016-11-13T09:41:09.532Z,360
2016-11-13T09:42:22.906Z,370
2016-11-13T09:43:39.489Z,380
2016-11-13T09:44:54.302Z,385
2016-11-13T09:46:09.973Z,390
2016-11-13T09:47:26.251Z,400
2016-11-13T09:48:42.570Z,400
2016-11-13T09:49:55.546Z,425
2016-11-13T09:51:09.595Z,430
2016-11-13T09:52:24.539Z,435
2016-11-13T09:53:36.617Z,420
2016-11-13T09:54:50.998Z,405
2016-11-13T09:56:06.137Z,390
2016-11-13T09:57:19.272Z,375
2016-11-13T09:58:35.333Z,360
2016-11-13T09:59:49.778Z,355
2016-11-13T10:01:04.252Z,350
2016-11-13T10:02:17.039Z,345
2016-11-13T10:03:31.292Z,340
2016-11-13T10:04:47.391Z,340
2016-11-13T10:06:02.871Z,340
2016-11-13T10:07:18.847Z,340
2016-11-13T10:08:34.001Z,330
2016-11-13T10:09:49.597Z,320
2016-11-13T10:11:05.419Z,315
2016-11-13T10:12:21.094Z,305
2016-11-13T10:13:35.350Z,300
2016-11-13T10:14:51.025Z,295
2016-11-13T10:16:06.086Z,290
2016-11-13T10:17:21.901Z,290
2016-11-13T10:18:36.162Z,295
2016-11-13T10:19:50.784Z,290
2016-11-13T10:21:07.206Z,290
2016-11-13T10:22:22.158Z,295
2016-11-13T10:23:39.113Z,300
2016-11-13T10:24:54.793Z,300
2016-11-13T10:26:10.808Z,310
2016-11-13T10:27:25.176Z,315
2016-11-13T10:28:41.055Z,320
2016-11-13T10:29:56.000Z,325
2016-11-13T10:31:10.233Z,330
2016-11-13T10:32:24.498Z,340
2016-11-13T10:33:38.661Z,345
2016-11-13T10:34:50.269Z,345
2016-11-13T10:36:05.926Z,355
2016-11-13T10:37:21.568Z,355
2016-11-13T10:38:35.732Z,365
2016-11-13T10:39:51.565Z,365
2016-11-13T10:41:05.564Z,370
2016-11-13T10:42:18.693Z,375
2016-11-13T10:43:33.331Z,385
2016-11-13T10:44:47.975Z,385
2016-11-13T10:46:03.279Z,395
2016-11-13T10:47:19.495Z,395
2016-11-13T10:48:32.847Z,390
2016-11-13T10:49:47.832Z,385
2016-11-13T10:51:02.056Z,385
2016-11-13T10:52:18.315Z,380
2016-11-13T10:53:31.919Z,380
2016-11-13T10:54:47.980Z,375
2016-11-13T10:56:02.620Z,370
2016-11-13T10:57:17.560Z,370
2016-11-13T10:58:34.180Z,365
2016-11-13T10:59:47.477Z,365
2016-11-13T11:01:02.329Z,360
2016-11-13T11:02:15.116Z,360
2016-11-13T11:03:28.021Z,360
2016-11-13T11:04:42.901Z,360
2016-11-13T11:05:57.552Z,355
2016-11-13T11:07:12.329Z,355
2016-11-13T11:08:24.100Z,355
2016-11-13T11:09:37.275Z,355
2016-11-13T11:10:52.062Z,355
2016-11-13T11:12:08.824Z,360
2016-11-13T11:13:23.223Z,355
2016-11-13T11:14:38.127Z,355
2016-11-13T11:15:54.170Z,355
2016-11-13T11:17:08.753Z,350
2016-11-13T11:18:22.968Z,355
2016-11-13T11:19:38.265Z,350
2016-11-13T11:20:54.591Z,340
2016-11-13T11:22:09.401Z,335
2016-11-13T11:23:25.979Z,330
2016-11-13T11:24:41.474Z,325
2016-11-13T11:25:57.132Z,320
2016-11-13T11:27:11.405Z,315
2016-11-13T11:28:25.907Z,320
2016-11-13T11:29:41.217Z,315
2016-11-13T11:30:57.313Z,315
2016-11-13T11:32:13.371Z,315
2016-11-13T11:33:28.566Z,320
2016-11-13T11:34:43.000Z,320
2016-11-13T11:35:59.067Z,320
2016-11-13T11:37:14.379Z,325
2016-11-13T11:38:27.176Z,325
2016-11-13T11:39:43.565Z,325
2016-11-13T11:40:59.783Z,330
2016-11-13T11:42:15.596Z,330
2016-11-13T11:43:31.652Z,330
2016-11-13T11:44:46.279Z,335
2016-11-13T11:46:01.252Z,340
2016-11-13T11:47:16.997Z,335
2016-11-13T11:48:30.018Z,340
2016-11-13T11:49:44.169Z,340
2016-11-13T11:50:59.838Z,340
2016-11-13T11:52:13.913Z,335
2016-11-13T11:53:26.928Z,335
2016-11-13T11:54:42.733Z,340
2016-11-13T11:55:58.292Z,340
2016-11-13T11:57:11.242Z,340
2016-11-13T11:58:26.544Z,340
2016-11-13T11:59:42.406Z,335
2016-11-13T12:00:56.686Z,335
2016-11-13T12:02:10.976Z,325
2016-11-13T12:03:24.592Z,325
2016-11-13T12:04:40.128Z,315
2016-11-13T12:05:54.603Z,310
2016-11-13T12:07:09.012Z,310
2016-11-13T12:08:22.174Z,310
2016-11-13T12:09:38.201Z,305
2016-11-13T12:10:53.364Z,305
2016-11-13T12:12:07.197Z,300
2016-11-13T12:13:23.059Z,300
2016-11-13T12:14:35.700Z,300
2016-11-13T12:15:51.607Z,295
2016-11-13T12:17:06.415Z,285
2016-11-13T12:18:19.725Z,280
2016-11-13T12:19:32.735Z,275
2016-11-13T12:20:48.261Z,270
2016-11-13T12:22:03.029Z,265
2016-11-13T12:23:17.115Z,260
2016-11-13T12:24:29.960Z,255
2016-11-13T12:25:45.780Z,255
2016-11-13T12:26:59.232Z,255
2016-11-13T12:28:15.949Z,255
2016-11-13T12:29:28.970Z,255
2016-11-13T12:30:44.831Z,260
2016-11-13T12:31:59.124Z,265
2016-11-13T12:33:13.589Z,260
2016-11-13T12:34:29.590Z,260
2016-11-13T12:35:43.861Z,260
2016-11-13T12:37:00.483Z,255
2016-11-13T12:38:16.572Z,255
2016-11-13T12:39:31.428Z,255
2016-11-13T12:40:45.986Z,250
2016-11-13T12:41:59.175Z,245
2016-11-13T12:43:15.356Z,240
2016-11-13T12:44:31.768Z,235
2016-11-13T12:45:45.967Z,230
2016-11-13T12:47:02.159Z,225
2016-11-13T12:48:15.465Z,225
2016-11-13T12:49:26.842Z,220
2016-11-13T12:50:42.150Z,220
2016-11-13T12:51:56.437Z,215
2016-11-13T12:53:11.014Z,210
2016-11-13T12:54:26.793Z,210
2016-11-13T12:55:39.823Z,205
2016-11-13T12:56:55.551Z,205
2016-11-13T12:58:10.123Z,205
2016-11-13T12:59:23.282Z,200
2016-11-13T13:00:39.008Z,200
2016-11-13T13:01:53.048Z,195
2016-11-13T13:03:06.257Z,195
2016-11-13T13:04:21.231Z,190
2016-11-13T13:05:37.131Z,190
2016-11-13T13:06:51.702Z,190
2016-11-13T13:08:07.915Z,185
2016-11-13T13:09:22.298Z,185
2016-11-13T13:10:36.896Z,185
2016-11-13T13:11:52.959Z,185
2016-11-13T13:13:08.640Z,185
2016-11-13T13:14:23.180Z,185
2016-11-13T13:15:36.847Z,185
2016-11-13T13:16:52.140Z,180
2016-11-13T13:18:06.694Z,180
2016-11-13T13:19:22.913Z,185
2016-11-13T13:20:38.752Z,180
2016-11-13T13:21:55.257Z,175
2016-11-13T13:23:11.453Z,175
2016-11-13T13:24:26.982Z,175
2016-11-13T13:25:41.018Z,170
2016-11-13T13:26:57.166Z,170
2016-11-13T13:28:13.187Z,165
2016-11-13T13:29:29.347Z,160
2016-11-13T13:30:44.348Z,160
2016-11-13T13:31:58.962Z,155
2016-11-13T13:33:13.583Z,150
2016-11-13T13:34:29.790Z,145
2016-11-13T13:35:44.573Z,145
2016-11-13T13:36:58.950Z,140
2016-11-13T13:38:15.202Z,140
2016-11-13T13:39:28.482Z,140
2016-11-13T13:40:43.967Z,135
2016-11-13T13:41:59.435Z,135
2016-11-13T13:43:15.088Z,135
2016-11-13T13:44:31.118Z,130
2016-11-13T13:45:45.665Z,130
2016-11-13T13:46:59.513Z,130
2016-11-13T13:48:13.940Z,130
2016-11-13T13:49:26.641Z,130
2016-11-13T13:50:41.119Z,130
2016-11-13T13:51:57.331Z,125
2016-11-13T13:53:10.688Z,125
2016-11-13T13:54:26.036Z,120
2016-11-13T13:55:40.971Z,120
2016-11-13T13:56:55.814Z,115
2016-11-13T13:58:10.074Z,115
2016-11-13T13:59:24.309Z,115
2016-11-13T14:00:37.290Z,110
2016-11-13T14:01:52.988Z,110
2016-11-13T14:03:08.873Z,105
2016-11-13T14:04:23.092Z,105
2016-11-13T14:05:36.230Z,105
2016-11-13T14:06:51.084Z,100
2016-11-13T14:08:07.133Z,100
2016-11-13T14:09:22.616Z,95
2016-11-13T14:10:37.587Z,95
2016-11-13T14:11:52.140Z,95
2016-11-13T14:13:06.931Z,90
2016-11-13T14:14:21.111Z,90
2016-11-13T14:15:36.962Z,90
2016-11-13T14:16:51.398Z,85
2016-11-13T14:18:07.776Z,85
2016-11-13T14:19:23.471Z,85
2016-11-13T14:20:36.557Z,85
2016-11-13T14:21:52.365Z,85
2016-11-13T14:23:05.153Z,85
2016-11-13T14:24:19.948Z,80
2016-11-13T14:25:34.514Z,80
2016-11-13T14:26:49.093Z,80
2016-11-13T14:28:05.311Z,75
2016-11-13T14:29:20.960Z,75
2016-11-13T14:30:34.390Z,75
2016-11-13T14:31:47.372Z,75
2016-11-13T14:33:03.037Z,70
2016-11-13T14:34:17.410Z,70
2016-11-13T14:35:31.615Z,70
2016-11-13T14:36:46.004Z,70
2016-11-13T14:38:00.603Z,70
2016-11-13T14:39:14.614Z,70
2016-11-13T14:40:29.101Z,65
2016-11-13T14:41:40.686Z,65
2016-11-13T14:42:53.830Z,65
2016-11-13T14:44:08.201Z,65
2016-11-13T14:45:22.904Z,65
2016-11-13T14:46:39.479Z,65
2016-11-13T14:47:54.124Z,60
2016-11-13T14:49:09.108Z,60
2016-11-13T14:50:23.527Z,60
2016-11-13T14:51:39.416Z,60
2016-11-13T14:52:51.080Z,55
2016-11-13T14:54:02.804Z,55
2016-11-13T14:55:19.068Z,55
2016-11-13T14:56:35.119Z,55
2016-11-13T14:57:48.619Z,55
2016-11-13T14:59:01.144Z,50
2016-11-13T15:00:17.549Z,50
2016-11-13T15:01:33.001Z,50
2016-11-13T15:02:48.118Z,50
2016-11-13T15:04:03.807Z,45
2016-11-13T15:05:19.988Z,45
2016-11-13T15:06:34.396Z,45
2016-11-13T15:07:49.983Z,45
2016-11-13T15:09:04.799Z,40
2016-11-13T15:10:18.851Z,40
2016-11-13T15:11:34.648Z,40
2016-11-13T15:12:49.803Z,40
2016-11-13T15:14:05.633Z,35
2016-11-13T15:15:20.019Z,35
2016-11-13T15:16:35.733Z,35
2016-11-13T15:17:50.172Z,35
2016-11-13T15:19:04.788Z,30
2016-11-13T15:20:20.969Z,30
2016-11-13T15:21:34.220Z,30
2016-11-13T15:22:50.219Z,30
2016-11-13T15:24:05.866Z,25
2016-11-13T15:25:20.809Z,25
2016-11-13T15:26:36.298Z,25
2016-11-13T15:27:52.142Z,25
2016-11-13T15:29:08.704Z,20
2016-11-13T15:30:21.236Z,20
2016-11-13T15:31:35.604Z,20
2016-11-13T15:32:49.730Z,15
2016-11-13T15:34:05.957Z,15
2016-11-13T15:35:18.810Z,15
2016-11-13T15:36:34.999Z,15
2016-11-13T15:37:49.619Z,10
2016-11-13T15:39:06.250Z,10
2016-11-13T15:40:18.306Z,10
2016-11-13T15:41:33.795Z,10
2016-11-13T15:42:49.673Z,5
2016-11-13T15:44:05.378Z,5
2016-11-13T15:45:20.971Z,5
2016-11-13T15:46:37.406Z,5
2016-11-13T15:47:50.787Z,5
2016-11-13T15:49:03.975Z,5
2016-11-13T15:50:20.207Z,0
2016-11-13T15:51:34.745Z,0
2016-11-13T15:52:49.120Z,0
2016-11-13T15:54:04.013Z,0
2016-11-13T15:55:17.217Z,0
2016-11-13T15:56:31.981Z,0
2016-11-13T15:57:47.994Z,0
2016-11-13T15:59:04.164Z,0
2016-11-13T16:00:18.356Z,0
2016-11-13T16:01:32.518Z,0
2016-11-13T16:02:45.845Z,0
2016-11-13T16:04:02.312Z,0
2016-11-13T16:05:17.415Z,0
2016-11-13T16:06:33.512Z,0
2016-11-13T16:07:48.628Z,0
2016-11-13T16:09:03.178Z,0
2016-11-13T16:10:16.639Z,0
2016-11-13T16:11:31.450Z,0
2016-11-13T16:12:46.558Z,0
2016-11-13T16:14:00.828Z,0
2016-11-13T16:15:13.793Z,0
2016-11-13T16:16:29.855Z,0
2016-11-13T16:17:46.103Z,0
2016-11-13T16:18:59.241Z,0
2016-11-13T16:20:15.281Z,0
2016-11-13T16:21:30.990Z,0
2016-11-13T16:22:47.152Z,0
2016-11-13T16:24:01.700Z,0
2016-11-13T16:25:17.735Z,0
2016-11-13T16:26:31.594Z,0
2016-11-13T16:27:48.085Z,0
2016-11-13T16:29:04.164Z,0
2016-11-13T16:30:20.536Z,0
2016-11-13T16:31:37.854Z,0
2016-11-13T16:32:53.419Z,0
2016-11-13T16:34:04.693Z,0
2016-11-13T16:35:20.968Z,0
2016-11-13T16:36:37.069Z,0
2016-11-13T16:37:51.085Z,0
2016-11-13T16:39:06.677Z,0
2016-11-13T16:40:22.325Z,0
2016-11-13T16:41:33.644Z,0
2016-11-13T16:42:46.620Z,0
2016-11-13T16:43:59.769Z,0
2016-11-13T16:45:14.162Z,0
2016-11-13T16:46:30.575Z,0
2016-11-13T16:47:46.212Z,0
2016-11-13T16:49:02.338Z,0
2016-11-13T16:50:17.306Z,0
2016-11-13T16:51:33.016Z,0
2016-11-13T16:52:48.840Z,0
2016-11-13T16:54:01.596Z,0
2016-11-13T16:55:16.304Z,0
2016-11-13T16:56:31.641Z,0
2016-11-13T16:57:47.178Z,0
2016-11-13T16:59:03.236Z,0
2016-11-13T17:00:19.058Z,0
2016-11-13T17:01:34.173Z,0
2016-11-13T17:02:47.646Z,0
2016-11-13T17:04:02.047Z,0
2016-11-13T17:05:17.735Z,0
2016-11-13T17:06:33.601Z,0
2016-11-13T17:07:49.985Z,0
2016-11-13T17:09:03.351Z,0
2016-11-13T17:10:18.888Z,0
2016-11-13T17:11:34.212Z,0
2016-11-13T17:12:47.137Z,0
2016-11-13T17:14:01.404Z,0
2016-11-13T17:15:17.095Z,0
2016-11-13T17:16:32.762Z,0
2016-11-13T17:17:47.353Z,0
2016-11-13T17:19:01.554Z,0
2016-11-13T17:20:15.824Z,0
2016-11-13T17:21:31.576Z,0
2016-11-13T17:22:47.905Z,0
2016-11-13T17:24:02.080Z,0
2016-11-13T17:25:13.355Z,0
2016-11-13T17:26:28.435Z,0
2016-11-13T17:27:41.368Z,0
2016-11-13T17:28:55.628Z,0
2016-11-13T17:30:10.690Z,0
2016-11-13T17:31:25.597Z,0
2016-11-13T17:32:41.962Z,0
2016-11-13T17:33:54.933Z,0
2016-11-13T17:35:10.078Z,0
2016-11-13T17:36:25.027Z,0
2016-11-13T17:37:41.556Z,0
2016-11-13T17:38:55.923Z,0
2016-11-13T17:40:10.479Z,0
2016-11-13T17:41:25.423Z,0
2016-11-13T17:42:39.820Z,0
2016-11-13T17:43:55.683Z,0
2016-11-13T17:45:11.585Z,0
2016-11-13T17:46:27.629Z,0
2016-11-13T17:47:43.258Z,0
2016-11-13T17:48:57.681Z,0
2016-11-13T17:50:10.740Z,0
2016-11-13T17:51:22.296Z,0